sensor_id;sensor_type;location;lat;lon;timestamp;P1;durP1;ratioP1;P2;durP2;ratioP2
295;SDS011;132;48.770;9.200;2023-02-15T00:01:35;40.95;;;19.30;;
295;SDS011;132;48.770;9.200;2023-02-15T00:04:02;43.35;;;20.58;;
295;SDS011;132;48.770;9.200;2023-02-15T00:06:29;37.92;;;19.48;;
295;SDS011;132;48.770;9.200;2023-02-15T00:08:56;42.92;;;19.77;;
295;SDS011;132;48.770;9.200;2023-02-15T00:11:23;41.38;;;20.05;;
295;SDS011;132;48.770;9.200;2023-02-15T00:14:16;42.25;;;19.88;;
295;SDS011;132;48.770;9.200;2023-02-15T00:16:47;40.47;;;19.30;;
295;SDS011;132;48.770;9.200;2023-02-15T00:19:15;39.67;;;19.85;;
295;SDS011;132;48.770;9.200;2023-02-15T00:21:42;35.30;;;17.60;;
295;SDS011;132;48.770;9.200;2023-02-15T00:24:09;33.88;;;17.75;;
295;SDS011;132;48.770;9.200;2023-02-15T00:26:38;38.35;;;18.88;;
295;SDS011;132;48.770;9.200;2023-02-15T00:29:06;39.38;;;19.38;;
295;SDS011;132;48.770;9.200;2023-02-15T00:31:34;40.95;;;20.90;;
295;SDS011;132;48.770;9.200;2023-02-15T00:34:11;42.65;;;20.48;;
295;SDS011;132;48.770;9.200;2023-02-15T00:36:39;46.65;;;21.33;;
295;SDS011;132;48.770;9.200;2023-02-15T00:39:06;40.92;;;20.08;;
295;SDS011;132;48.770;9.200;2023-02-15T00:41:35;38.15;;;19.23;;
295;SDS011;132;48.770;9.200;2023-02-15T00:44:01;38.72;;;18.25;;
295;SDS011;132;48.770;9.200;2023-02-15T00:46:29;37.67;;;20.17;;
295;SDS011;132;48.770;9.200;2023-02-15T00:48:55;37.50;;;19.45;;
295;SDS011;132;48.770;9.200;2023-02-15T00:51:22;43.63;;;20.50;;
295;SDS011;132;48.770;9.200;2023-02-15T00:53:49;39.15;;;19.52;;
295;SDS011;132;48.770;9.200;2023-02-15T00:56:15;41.42;;;20.45;;
295;SDS011;132;48.770;9.200;2023-02-15T00:58:43;42.70;;;19.85;;
295;SDS011;132;48.770;9.200;2023-02-15T01:01:10;46.10;;;21.20;;
295;SDS011;132;48.770;9.200;2023-02-15T01:03:42;40.40;;;20.17;;
295;SDS011;132;48.770;9.200;2023-02-15T01:06:09;42.80;;;18.02;;
295;SDS011;132;48.770;9.200;2023-02-15T01:08:36;44.33;;;20.00;;
295;SDS011;132;48.770;9.200;2023-02-15T01:11:07;47.42;;;20.70;;
295;SDS011;132;48.770;9.200;2023-02-15T01:13:36;40.58;;;20.05;;
295;SDS011;132;48.770;9.200;2023-02-15T01:16:03;39.47;;;19.77;;
295;SDS011;132;48.770;9.200;2023-02-15T01:18:29;41.75;;;21.00;;
295;SDS011;132;48.770;9.200;2023-02-15T01:20:56;38.63;;;19.60;;
295;SDS011;132;48.770;9.200;2023-02-15T01:23:23;40.33;;;19.92;;
295;SDS011;132;48.770;9.200;2023-02-15T01:25:49;41.75;;;19.92;;
295;SDS011;132;48.770;9.200;2023-02-15T01:28:16;40.08;;;19.60;;
295;SDS011;132;48.770;9.200;2023-02-15T01:30:42;38.55;;;19.65;;
295;SDS011;132;48.770;9.200;2023-02-15T01:33:09;42.78;;;20.45;;
295;SDS011;132;48.770;9.200;2023-02-15T01:35:43;41.33;;;19.85;;
295;SDS011;132;48.770;9.200;2023-02-15T01:38:11;36.17;;;18.67;;
295;SDS011;132;48.770;9.200;2023-02-15T01:40:38;44.47;;;22.05;;
295;SDS011;132;48.770;9.200;2023-02-15T01:43:09;37.80;;;19.98;;
295;SDS011;132;48.770;9.200;2023-02-15T01:45:37;46.47;;;21.02;;
295;SDS011;132;48.770;9.200;2023-02-15T01:48:05;39.83;;;19.27;;
295;SDS011;132;48.770;9.200;2023-02-15T01:55:34;44.17;;;19.25;;
295;SDS011;132;48.770;9.200;2023-02-15T01:58:03;41.17;;;20.27;;
295;SDS011;132;48.770;9.200;2023-02-15T02:00:31;41.75;;;20.70;;
295;SDS011;132;48.770;9.200;2023-02-15T02:03:15;43.50;;;19.67;;
295;SDS011;132;48.770;9.200;2023-02-15T02:05:41;39.28;;;19.13;;
295;SDS011;132;48.770;9.200;2023-02-15T02:08:09;37.47;;;18.50;;
295;SDS011;132;48.770;9.200;2023-02-15T02:10:36;47.08;;;21.35;;
295;SDS011;132;48.770;9.200;2023-02-15T02:13:03;45.92;;;20.55;;
295;SDS011;132;48.770;9.200;2023-02-15T02:15:40;44.63;;;20.25;;
295;SDS011;132;48.770;9.200;2023-02-15T02:24:23;38.28;;;18.67;;
295;SDS011;132;48.770;9.200;2023-02-15T02:27:22;41.65;;;20.40;;
295;SDS011;132;48.770;9.200;2023-02-15T02:30:06;40.45;;;20.00;;
295;SDS011;132;48.770;9.200;2023-02-15T02:32:57;42.63;;;20.70;;
295;SDS011;132;48.770;9.200;2023-02-15T02:35:48;44.47;;;20.50;;
295;SDS011;132;48.770;9.200;2023-02-15T02:38:29;41.22;;;21.13;;
295;SDS011;132;48.770;9.200;2023-02-15T02:46:35;51.70;;;22.45;;
295;SDS011;132;48.770;9.200;2023-02-15T02:49:09;43.58;;;20.27;;
295;SDS011;132;48.770;9.200;2023-02-15T02:51:37;49.42;;;21.63;;
295;SDS011;132;48.770;9.200;2023-02-15T02:54:04;43.30;;;20.00;;
295;SDS011;132;48.770;9.200;2023-02-15T02:56:36;44.22;;;20.58;;
295;SDS011;132;48.770;9.200;2023-02-15T02:59:15;44.92;;;21.08;;
295;SDS011;132;48.770;9.200;2023-02-15T03:01:47;43.10;;;20.40;;
295;SDS011;132;48.770;9.200;2023-02-15T03:04:19;42.15;;;19.80;;
295;SDS011;132;48.770;9.200;2023-02-15T03:06:57;47.40;;;21.95;;
295;SDS011;132;48.770;9.200;2023-02-15T03:09:39;37.75;;;18.58;;
295;SDS011;132;48.770;9.200;2023-02-15T03:12:09;46.17;;;21.10;;
295;SDS011;132;48.770;9.200;2023-02-15T03:14:43;47.53;;;22.55;;
295;SDS011;132;48.770;9.200;2023-02-15T03:17:15;45.45;;;20.38;;
295;SDS011;132;48.770;9.200;2023-02-15T03:19:45;49.55;;;24.35;;
295;SDS011;132;48.770;9.200;2023-02-15T03:27:30;45.35;;;22.27;;
295;SDS011;132;48.770;9.200;2023-02-15T03:30:01;41.38;;;20.33;;
295;SDS011;132;48.770;9.200;2023-02-15T03:32:29;43.25;;;20.67;;
295;SDS011;132;48.770;9.200;2023-02-15T03:34:58;39.65;;;19.80;;
295;SDS011;132;48.770;9.200;2023-02-15T03:45:52;40.38;;;20.58;;
295;SDS011;132;48.770;9.200;2023-02-15T03:48:30;45.22;;;21.55;;
295;SDS011;132;48.770;9.200;2023-02-15T03:51:02;50.75;;;21.52;;
295;SDS011;132;48.770;9.200;2023-02-15T03:53:50;44.33;;;21.13;;
295;SDS011;132;48.770;9.200;2023-02-15T03:56:18;42.53;;;20.20;;
295;SDS011;132;48.770;9.200;2023-02-15T03:58:44;43.13;;;20.95;;
295;SDS011;132;48.770;9.200;2023-02-15T04:01:53;45.50;;;21.02;;
295;SDS011;132;48.770;9.200;2023-02-15T04:04:38;41.72;;;20.02;;
295;SDS011;132;48.770;9.200;2023-02-15T04:07:08;42.83;;;20.90;;
295;SDS011;132;48.770;9.200;2023-02-15T04:09:35;39.42;;;19.50;;
295;SDS011;132;48.770;9.200;2023-02-15T04:12:20;43.83;;;19.80;;
295;SDS011;132;48.770;9.200;2023-02-15T04:14:47;47.30;;;21.05;;
295;SDS011;132;48.770;9.200;2023-02-15T04:17:32;39.25;;;18.25;;
295;SDS011;132;48.770;9.200;2023-02-15T04:19:58;40.10;;;19.55;;
295;SDS011;132;48.770;9.200;2023-02-15T04:22:44;39.00;;;20.00;;
295;SDS011;132;48.770;9.200;2023-02-15T04:25:29;43.05;;;20.65;;
295;SDS011;132;48.770;9.200;2023-02-15T04:27:56;38.25;;;19.70;;
295;SDS011;132;48.770;9.200;2023-02-15T04:30:23;40.15;;;20.05;;
295;SDS011;132;48.770;9.200;2023-02-15T04:32:50;44.58;;;20.52;;
295;SDS011;132;48.770;9.200;2023-02-15T04:35:17;41.53;;;19.83;;
295;SDS011;132;48.770;9.200;2023-02-15T04:37:44;40.75;;;20.83;;
295;SDS011;132;48.770;9.200;2023-02-15T04:40:11;44.47;;;21.42;;
295;SDS011;132;48.770;9.200;2023-02-15T04:42:39;47.08;;;21.17;;
295;SDS011;132;48.770;9.200;2023-02-15T04:45:06;44.28;;;20.45;;
295;SDS011;132;48.770;9.200;2023-02-15T04:47:32;45.70;;;21.60;;
295;SDS011;132;48.770;9.200;2023-02-15T04:49:59;42.72;;;20.08;;
295;SDS011;132;48.770;9.200;2023-02-15T04:52:25;46.20;;;21.73;;
295;SDS011;132;48.770;9.200;2023-02-15T04:54:52;38.10;;;18.25;;
295;SDS011;132;48.770;9.200;2023-02-15T04:57:18;41.97;;;21.10;;
295;SDS011;132;48.770;9.200;2023-02-15T04:59:45;43.80;;;20.45;;
295;SDS011;132;48.770;9.200;2023-02-15T05:02:12;38.72;;;20.17;;
295;SDS011;132;48.770;9.200;2023-02-15T05:04:38;45.55;;;20.48;;
295;SDS011;132;48.770;9.200;2023-02-15T05:07:04;45.25;;;21.40;;
295;SDS011;132;48.770;9.200;2023-02-15T05:09:31;40.63;;;19.73;;
295;SDS011;132;48.770;9.200;2023-02-15T05:11:57;47.42;;;21.38;;
295;SDS011;132;48.770;9.200;2023-02-15T05:14:24;40.08;;;20.67;;
295;SDS011;132;48.770;9.200;2023-02-15T05:16:50;46.15;;;21.50;;
295;SDS011;132;48.770;9.200;2023-02-15T05:19:17;46.67;;;21.45;;
295;SDS011;132;48.770;9.200;2023-02-15T05:21:43;43.30;;;21.13;;
295;SDS011;132;48.770;9.200;2023-02-15T05:24:10;44.20;;;21.30;;
295;SDS011;132;48.770;9.200;2023-02-15T05:26:55;48.28;;;21.73;;
295;SDS011;132;48.770;9.200;2023-02-15T05:29:40;48.45;;;21.90;;
295;SDS011;132;48.770;9.200;2023-02-15T05:32:06;41.30;;;21.65;;
295;SDS011;132;48.770;9.200;2023-02-15T05:34:33;41.78;;;20.73;;
295;SDS011;132;48.770;9.200;2023-02-15T05:36:59;45.20;;;21.55;;
295;SDS011;132;48.770;9.200;2023-02-15T05:39:26;45.90;;;22.00;;
295;SDS011;132;48.770;9.200;2023-02-15T05:41:52;45.80;;;20.60;;
295;SDS011;132;48.770;9.200;2023-02-15T05:44:18;45.75;;;20.92;;
295;SDS011;132;48.770;9.200;2023-02-15T05:46:45;44.50;;;22.27;;
295;SDS011;132;48.770;9.200;2023-02-15T05:49:11;45.75;;;20.98;;
295;SDS011;132;48.770;9.200;2023-02-15T05:51:38;42.53;;;20.80;;
295;SDS011;132;48.770;9.200;2023-02-15T05:54:04;44.05;;;21.00;;
295;SDS011;132;48.770;9.200;2023-02-15T05:56:31;41.22;;;20.25;;
295;SDS011;132;48.770;9.200;2023-02-15T05:58:57;44.45;;;20.40;;
295;SDS011;132;48.770;9.200;2023-02-15T06:01:24;45.17;;;21.05;;
295;SDS011;132;48.770;9.200;2023-02-15T06:03:50;45.58;;;21.75;;
295;SDS011;132;48.770;9.200;2023-02-15T06:06:17;47.13;;;22.40;;
295;SDS011;132;48.770;9.200;2023-02-15T06:08:44;54.58;;;23.67;;
295;SDS011;132;48.770;9.200;2023-02-15T06:11:10;50.88;;;22.00;;
295;SDS011;132;48.770;9.200;2023-02-15T06:13:37;47.33;;;23.52;;
295;SDS011;132;48.770;9.200;2023-02-15T06:16:03;48.35;;;22.17;;
295;SDS011;132;48.770;9.200;2023-02-15T06:18:30;46.65;;;21.30;;
295;SDS011;132;48.770;9.200;2023-02-15T06:20:56;48.47;;;22.08;;
295;SDS011;132;48.770;9.200;2023-02-15T06:23:23;50.13;;;22.67;;
295;SDS011;132;48.770;9.200;2023-02-15T06:25:49;45.35;;;21.23;;
295;SDS011;132;48.770;9.200;2023-02-15T06:28:16;47.70;;;22.13;;
295;SDS011;132;48.770;9.200;2023-02-15T06:30:42;45.95;;;22.08;;
295;SDS011;132;48.770;9.200;2023-02-15T06:33:08;43.65;;;21.00;;
295;SDS011;132;48.770;9.200;2023-02-15T06:35:35;46.95;;;22.33;;
295;SDS011;132;48.770;9.200;2023-02-15T06:38:01;44.70;;;21.60;;
295;SDS011;132;48.770;9.200;2023-02-15T06:40:28;43.30;;;20.70;;
295;SDS011;132;48.770;9.200;2023-02-15T06:42:54;48.47;;;22.17;;
295;SDS011;132;48.770;9.200;2023-02-15T06:45:21;51.88;;;23.00;;
295;SDS011;132;48.770;9.200;2023-02-15T06:47:47;47.75;;;22.10;;
295;SDS011;132;48.770;9.200;2023-02-15T06:50:14;49.28;;;23.63;;
295;SDS011;132;48.770;9.200;2023-02-15T06:52:40;44.80;;;22.65;;
295;SDS011;132;48.770;9.200;2023-02-15T06:55:07;48.58;;;22.40;;
295;SDS011;132;48.770;9.200;2023-02-15T06:57:36;52.97;;;23.90;;
295;SDS011;132;48.770;9.200;2023-02-15T07:00:03;46.95;;;21.63;;
295;SDS011;132;48.770;9.200;2023-02-15T07:02:30;46.13;;;24.00;;
295;SDS011;132;48.770;9.200;2023-02-15T07:04:57;51.65;;;23.23;;
295;SDS011;132;48.770;9.200;2023-02-15T07:07:23;48.20;;;22.25;;
295;SDS011;132;48.770;9.200;2023-02-15T07:09:50;50.38;;;24.63;;
295;SDS011;132;48.770;9.200;2023-02-15T07:12:16;50.85;;;23.58;;
295;SDS011;132;48.770;9.200;2023-02-15T07:15:02;50.75;;;22.33;;
295;SDS011;132;48.770;9.200;2023-02-15T07:17:30;54.75;;;24.45;;
295;SDS011;132;48.770;9.200;2023-02-15T07:19:57;51.22;;;23.85;;
295;SDS011;132;48.770;9.200;2023-02-15T07:22:23;51.17;;;23.35;;
295;SDS011;132;48.770;9.200;2023-02-15T07:24:50;59.28;;;24.23;;
295;SDS011;132;48.770;9.200;2023-02-15T07:27:20;58.20;;;25.88;;
295;SDS011;132;48.770;9.200;2023-02-15T07:29:47;55.90;;;24.77;;
295;SDS011;132;48.770;9.200;2023-02-15T07:32:13;57.58;;;25.98;;
295;SDS011;132;48.770;9.200;2023-02-15T07:34:40;63.15;;;24.75;;
295;SDS011;132;48.770;9.200;2023-02-15T07:37:06;57.63;;;24.65;;
295;SDS011;132;48.770;9.200;2023-02-15T07:39:33;67.22;;;25.73;;
295;SDS011;132;48.770;9.200;2023-02-15T07:41:59;64.75;;;26.70;;
295;SDS011;132;48.770;9.200;2023-02-15T07:44:30;70.40;;;28.48;;
295;SDS011;132;48.770;9.200;2023-02-15T07:46:56;77.63;;;30.25;;
295;SDS011;132;48.770;9.200;2023-02-15T07:49:22;62.35;;;25.10;;
295;SDS011;132;48.770;9.200;2023-02-15T07:51:49;70.13;;;27.90;;
295;SDS011;132;48.770;9.200;2023-02-15T07:54:15;84.45;;;30.80;;
295;SDS011;132;48.770;9.200;2023-02-15T07:56:42;57.20;;;25.67;;
295;SDS011;132;48.770;9.200;2023-02-15T07:59:08;64.82;;;27.15;;
295;SDS011;132;48.770;9.200;2023-02-15T08:01:36;58.33;;;24.63;;
295;SDS011;132;48.770;9.200;2023-02-15T08:04:04;66.20;;;25.92;;
295;SDS011;132;48.770;9.200;2023-02-15T08:06:33;58.83;;;26.42;;
295;SDS011;132;48.770;9.200;2023-02-15T08:09:01;72.57;;;27.15;;
295;SDS011;132;48.770;9.200;2023-02-15T08:11:31;70.03;;;28.05;;
295;SDS011;132;48.770;9.200;2023-02-15T08:14:14;66.60;;;28.17;;
295;SDS011;132;48.770;9.200;2023-02-15T08:16:47;56.70;;;24.40;;
295;SDS011;132;48.770;9.200;2023-02-15T08:19:18;58.60;;;25.33;;
295;SDS011;132;48.770;9.200;2023-02-15T08:24:20;62.30;;;26.10;;
295;SDS011;132;48.770;9.200;2023-02-15T08:26:48;59.17;;;26.63;;
295;SDS011;132;48.770;9.200;2023-02-15T08:29:15;80.05;;;32.03;;
295;SDS011;132;48.770;9.200;2023-02-15T08:31:43;57.05;;;25.70;;
295;SDS011;132;48.770;9.200;2023-02-15T08:34:12;65.57;;;29.60;;
295;SDS011;132;48.770;9.200;2023-02-15T08:36:44;71.25;;;25.02;;
295;SDS011;132;48.770;9.200;2023-02-15T08:39:11;61.45;;;26.80;;
295;SDS011;132;48.770;9.200;2023-02-15T08:41:39;63.40;;;26.52;;
295;SDS011;132;48.770;9.200;2023-02-15T08:44:08;68.85;;;27.67;;
295;SDS011;132;48.770;9.200;2023-02-15T08:46:37;59.60;;;26.42;;
295;SDS011;132;48.770;9.200;2023-02-15T08:49:05;65.93;;;27.15;;
295;SDS011;132;48.770;9.200;2023-02-15T08:51:32;69.68;;;28.70;;
295;SDS011;132;48.770;9.200;2023-02-15T08:54:05;58.20;;;26.70;;
295;SDS011;132;48.770;9.200;2023-02-15T08:56:33;60.78;;;27.20;;
295;SDS011;132;48.770;9.200;2023-02-15T08:59:02;68.28;;;27.92;;
295;SDS011;132;48.770;9.200;2023-02-15T09:01:30;74.50;;;29.92;;
295;SDS011;132;48.770;9.200;2023-02-15T09:04:03;62.50;;;27.60;;
295;SDS011;132;48.770;9.200;2023-02-15T09:06:32;62.97;;;26.60;;
295;SDS011;132;48.770;9.200;2023-02-15T09:08:58;68.13;;;28.20;;
295;SDS011;132;48.770;9.200;2023-02-15T09:11:28;58.83;;;26.38;;
295;SDS011;132;48.770;9.200;2023-02-15T09:13:57;63.75;;;28.83;;
295;SDS011;132;48.770;9.200;2023-02-15T09:16:26;65.13;;;28.85;;
295;SDS011;132;48.770;9.200;2023-02-15T09:18:55;77.45;;;29.77;;
295;SDS011;132;48.770;9.200;2023-02-15T09:21:23;69.40;;;29.20;;
295;SDS011;132;48.770;9.200;2023-02-15T09:23:52;88.18;;;27.33;;
295;SDS011;132;48.770;9.200;2023-02-15T09:26:22;74.30;;;30.10;;
295;SDS011;132;48.770;9.200;2023-02-15T09:28:54;78.72;;;27.95;;
295;SDS011;132;48.770;9.200;2023-02-15T09:31:26;53.38;;;24.85;;
295;SDS011;132;48.770;9.200;2023-02-15T09:33:54;53.80;;;24.70;;
295;SDS011;132;48.770;9.200;2023-02-15T09:36:23;53.13;;;23.73;;
295;SDS011;132;48.770;9.200;2023-02-15T09:39:00;53.08;;;25.27;;
295;SDS011;132;48.770;9.200;2023-02-15T09:44:27;62.13;;;25.50;;
295;SDS011;132;48.770;9.200;2023-02-15T09:55:34;53.45;;;24.55;;
295;SDS011;132;48.770;9.200;2023-02-15T10:00:34;57.53;;;26.25;;
295;SDS011;132;48.770;9.200;2023-02-15T10:08:52;56.90;;;26.13;;
295;SDS011;132;48.770;9.200;2023-02-15T10:22:21;49.25;;;26.50;;
295;SDS011;132;48.770;9.200;2023-02-15T10:27:44;49.85;;;24.75;;
295;SDS011;132;48.770;9.200;2023-02-15T10:33:10;49.30;;;25.35;;
295;SDS011;132;48.770;9.200;2023-02-15T10:38:25;51.90;;;24.83;;
295;SDS011;132;48.770;9.200;2023-02-15T10:50:00;46.17;;;24.40;;
295;SDS011;132;48.770;9.200;2023-02-15T10:52:59;46.20;;;23.00;;
295;SDS011;132;48.770;9.200;2023-02-15T11:07:16;46.38;;;23.55;;
295;SDS011;132;48.770;9.200;2023-02-15T11:12:38;47.15;;;24.13;;
295;SDS011;132;48.770;9.200;2023-02-15T11:15:15;42.65;;;21.48;;
295;SDS011;132;48.770;9.200;2023-02-15T11:17:46;45.42;;;23.15;;
295;SDS011;132;48.770;9.200;2023-02-15T11:20:23;41.47;;;23.00;;
295;SDS011;132;48.770;9.200;2023-02-15T11:22:56;41.50;;;22.40;;
295;SDS011;132;48.770;9.200;2023-02-15T11:25:24;38.72;;;21.20;;
295;SDS011;132;48.770;9.200;2023-02-15T11:27:55;43.15;;;22.33;;
295;SDS011;132;48.770;9.200;2023-02-15T11:30:23;43.83;;;21.00;;
295;SDS011;132;48.770;9.200;2023-02-15T11:32:54;43.42;;;23.13;;
295;SDS011;132;48.770;9.200;2023-02-15T11:35:33;46.92;;;22.73;;
295;SDS011;132;48.770;9.200;2023-02-15T11:40:48;43.08;;;23.40;;
295;SDS011;132;48.770;9.200;2023-02-15T11:45:54;38.92;;;21.70;;
295;SDS011;132;48.770;9.200;2023-02-15T11:48:21;42.22;;;22.75;;
295;SDS011;132;48.770;9.200;2023-02-15T11:50:48;43.65;;;22.92;;
295;SDS011;132;48.770;9.200;2023-02-15T11:53:18;47.42;;;21.83;;
295;SDS011;132;48.770;9.200;2023-02-15T11:55:48;41.42;;;22.20;;
295;SDS011;132;48.770;9.200;2023-02-15T12:00:56;40.63;;;22.08;;
295;SDS011;132;48.770;9.200;2023-02-15T12:03:46;39.80;;;22.23;;
295;SDS011;132;48.770;9.200;2023-02-15T12:06:38;47.67;;;23.92;;
295;SDS011;132;48.770;9.200;2023-02-15T12:09:30;42.92;;;22.95;;
295;SDS011;132;48.770;9.200;2023-02-15T12:14:54;38.33;;;21.40;;
295;SDS011;132;48.770;9.200;2023-02-15T12:17:29;39.75;;;22.75;;
295;SDS011;132;48.770;9.200;2023-02-15T12:20:06;40.08;;;22.30;;
295;SDS011;132;48.770;9.200;2023-02-15T12:22:34;39.53;;;21.55;;
295;SDS011;132;48.770;9.200;2023-02-15T12:31:02;41.20;;;22.90;;
295;SDS011;132;48.770;9.200;2023-02-15T12:33:34;44.45;;;23.20;;
295;SDS011;132;48.770;9.200;2023-02-15T12:36:06;35.50;;;20.50;;
295;SDS011;132;48.770;9.200;2023-02-15T12:38:37;39.40;;;21.40;;
295;SDS011;132;48.770;9.200;2023-02-15T12:41:05;35.80;;;21.88;;
295;SDS011;132;48.770;9.200;2023-02-15T12:46:30;42.35;;;22.25;;
295;SDS011;132;48.770;9.200;2023-02-15T12:49:10;41.30;;;20.48;;
295;SDS011;132;48.770;9.200;2023-02-15T13:00:01;41.25;;;22.50;;
295;SDS011;132;48.770;9.200;2023-02-15T13:05:10;44.10;;;22.35;;
295;SDS011;132;48.770;9.200;2023-02-15T13:08:09;43.83;;;21.70;;
295;SDS011;132;48.770;9.200;2023-02-15T13:10:54;39.67;;;22.95;;
295;SDS011;132;48.770;9.200;2023-02-15T13:13:26;40.30;;;23.73;;
295;SDS011;132;48.770;9.200;2023-02-15T13:15:59;44.03;;;23.58;;
295;SDS011;132;48.770;9.200;2023-02-15T13:21:31;35.35;;;21.65;;
295;SDS011;132;48.770;9.200;2023-02-15T13:24:05;42.45;;;21.67;;
295;SDS011;132;48.770;9.200;2023-02-15T13:26:32;47.80;;;23.13;;
295;SDS011;132;48.770;9.200;2023-02-15T13:29:05;42.10;;;23.45;;
295;SDS011;132;48.770;9.200;2023-02-15T13:31:41;45.28;;;23.25;;
295;SDS011;132;48.770;9.200;2023-02-15T13:34:14;39.95;;;21.83;;
295;SDS011;132;48.770;9.200;2023-02-15T13:36:49;36.67;;;21.60;;
295;SDS011;132;48.770;9.200;2023-02-15T13:39:33;48.33;;;23.05;;
295;SDS011;132;48.770;9.200;2023-02-15T13:42:20;39.67;;;22.25;;
295;SDS011;132;48.770;9.200;2023-02-15T14:01:34;34.42;;;20.90;;
295;SDS011;132;48.770;9.200;2023-02-15T14:04:52;35.20;;;20.85;;
295;SDS011;132;48.770;9.200;2023-02-15T14:07:02;35.63;;;21.38;;
295;SDS011;132;48.770;9.200;2023-02-15T14:12:45;37.28;;;21.00;;
295;SDS011;132;48.770;9.200;2023-02-15T14:21:06;34.75;;;20.75;;
295;SDS011;132;48.770;9.200;2023-02-15T14:23:52;33.85;;;19.48;;
295;SDS011;132;48.770;9.200;2023-02-15T14:26:38;36.55;;;19.38;;
295;SDS011;132;48.770;9.200;2023-02-15T14:29:20;32.85;;;19.25;;
295;SDS011;132;48.770;9.200;2023-02-15T14:34:57;34.25;;;19.25;;
295;SDS011;132;48.770;9.200;2023-02-15T14:37:29;40.35;;;20.75;;
295;SDS011;132;48.770;9.200;2023-02-15T14:40:18;36.53;;;21.42;;
295;SDS011;132;48.770;9.200;2023-02-15T14:43:24;39.38;;;20.15;;
295;SDS011;132;48.770;9.200;2023-02-15T14:46:02;35.45;;;19.80;;
295;SDS011;132;48.770;9.200;2023-02-15T14:48:45;32.50;;;19.75;;
295;SDS011;132;48.770;9.200;2023-02-15T15:04:56;33.92;;;19.50;;
295;SDS011;132;48.770;9.200;2023-02-15T15:07:38;35.80;;;19.45;;
295;SDS011;132;48.770;9.200;2023-02-15T15:12:45;31.40;;;17.50;;
295;SDS011;132;48.770;9.200;2023-02-15T15:25:46;30.10;;;16.80;;
295;SDS011;132;48.770;9.200;2023-02-15T15:31:07;30.27;;;17.17;;
295;SDS011;132;48.770;9.200;2023-02-15T15:33:53;31.27;;;18.00;;
295;SDS011;132;48.770;9.200;2023-02-15T15:45:41;35.35;;;20.15;;
295;SDS011;132;48.770;9.200;2023-02-15T15:51:02;32.22;;;17.30;;
295;SDS011;132;48.770;9.200;2023-02-15T15:53:39;34.22;;;19.33;;
295;SDS011;132;48.770;9.200;2023-02-15T15:56:13;32.33;;;17.52;;
295;SDS011;132;48.770;9.200;2023-02-15T15:58:50;33.40;;;17.92;;
295;SDS011;132;48.770;9.200;2023-02-15T16:01:26;41.92;;;21.20;;
295;SDS011;132;48.770;9.200;2023-02-15T16:03:56;38.83;;;18.98;;
295;SDS011;132;48.770;9.200;2023-02-15T16:06:36;40.35;;;20.48;;
295;SDS011;132;48.770;9.200;2023-02-15T16:09:12;38.35;;;19.70;;
295;SDS011;132;48.770;9.200;2023-02-15T16:11:42;33.53;;;18.80;;
295;SDS011;132;48.770;9.200;2023-02-15T16:14:16;39.28;;;21.73;;
295;SDS011;132;48.770;9.200;2023-02-15T16:16:51;33.95;;;20.23;;
295;SDS011;132;48.770;9.200;2023-02-15T16:19:22;38.28;;;22.85;;
295;SDS011;132;48.770;9.200;2023-02-15T16:21:51;48.80;;;26.48;;
295;SDS011;132;48.770;9.200;2023-02-15T16:24:21;40.42;;;24.52;;
295;SDS011;132;48.770;9.200;2023-02-15T16:27:04;50.40;;;27.00;;
295;SDS011;132;48.770;9.200;2023-02-15T16:29:34;49.83;;;27.85;;
295;SDS011;132;48.770;9.200;2023-02-15T16:32:05;54.95;;;28.65;;
295;SDS011;132;48.770;9.200;2023-02-15T16:34:56;49.40;;;26.40;;
295;SDS011;132;48.770;9.200;2023-02-15T16:37:31;44.63;;;26.08;;
295;SDS011;132;48.770;9.200;2023-02-15T16:39:59;46.58;;;26.05;;
295;SDS011;132;48.770;9.200;2023-02-15T16:42:26;47.13;;;25.65;;
295;SDS011;132;48.770;9.200;2023-02-15T16:45:06;56.13;;;25.45;;
295;SDS011;132;48.770;9.200;2023-02-15T16:47:39;44.92;;;24.58;;
295;SDS011;132;48.770;9.200;2023-02-15T16:50:16;42.97;;;23.98;;
295;SDS011;132;48.770;9.200;2023-02-15T16:52:50;45.83;;;23.67;;
295;SDS011;132;48.770;9.200;2023-02-15T16:55:21;41.92;;;23.50;;
295;SDS011;132;48.770;9.200;2023-02-15T16:57:57;38.53;;;21.25;;
295;SDS011;132;48.770;9.200;2023-02-15T17:00:28;41.58;;;22.40;;
295;SDS011;132;48.770;9.200;2023-02-15T17:08:27;39.40;;;22.90;;
295;SDS011;132;48.770;9.200;2023-02-15T17:11:04;44.00;;;22.95;;
295;SDS011;132;48.770;9.200;2023-02-15T17:17:22;43.33;;;20.60;;
295;SDS011;132;48.770;9.200;2023-02-15T17:19:52;41.40;;;21.60;;
295;SDS011;132;48.770;9.200;2023-02-15T17:22:24;41.58;;;22.52;;
295;SDS011;132;48.770;9.200;2023-02-15T17:25:00;41.03;;;21.05;;
295;SDS011;132;48.770;9.200;2023-02-15T17:27:29;58.95;;;28.05;;
295;SDS011;132;48.770;9.200;2023-02-15T17:29:59;59.60;;;28.48;;
295;SDS011;132;48.770;9.200;2023-02-15T17:32:29;59.15;;;29.50;;
295;SDS011;132;48.770;9.200;2023-02-15T17:40:16;43.60;;;21.30;;
295;SDS011;132;48.770;9.200;2023-02-15T17:42:46;41.08;;;21.58;;
295;SDS011;132;48.770;9.200;2023-02-15T17:45:12;38.22;;;21.50;;
295;SDS011;132;48.770;9.200;2023-02-15T17:47:39;42.50;;;22.65;;
295;SDS011;132;48.770;9.200;2023-02-15T17:50:06;44.47;;;22.50;;
295;SDS011;132;48.770;9.200;2023-02-15T17:52:34;45.72;;;23.45;;
295;SDS011;132;48.770;9.200;2023-02-15T17:55:07;46.65;;;25.08;;
295;SDS011;132;48.770;9.200;2023-02-15T17:57:56;42.83;;;23.75;;
295;SDS011;132;48.770;9.200;2023-02-15T18:00:23;44.30;;;23.77;;
295;SDS011;132;48.770;9.200;2023-02-15T18:03:11;44.90;;;22.90;;
295;SDS011;132;48.770;9.200;2023-02-15T18:05:56;40.55;;;21.60;;
295;SDS011;132;48.770;9.200;2023-02-15T18:08:41;40.00;;;23.02;;
295;SDS011;132;48.770;9.200;2023-02-15T18:11:27;39.78;;;22.63;;
295;SDS011;132;48.770;9.200;2023-02-15T18:14:04;40.38;;;22.55;;
295;SDS011;132;48.770;9.200;2023-02-15T18:16:36;47.00;;;24.27;;
295;SDS011;132;48.770;9.200;2023-02-15T18:19:09;50.20;;;26.83;;
295;SDS011;132;48.770;9.200;2023-02-15T18:21:46;57.25;;;30.23;;
295;SDS011;132;48.770;9.200;2023-02-15T18:24:18;56.50;;;28.30;;
295;SDS011;132;48.770;9.200;2023-02-15T18:26:46;50.55;;;27.10;;
295;SDS011;132;48.770;9.200;2023-02-15T18:29:13;54.78;;;27.98;;
295;SDS011;132;48.770;9.200;2023-02-15T18:31:40;52.58;;;27.70;;
295;SDS011;132;48.770;9.200;2023-02-15T18:34:14;49.85;;;25.67;;
295;SDS011;132;48.770;9.200;2023-02-15T18:36:57;46.28;;;24.05;;
295;SDS011;132;48.770;9.200;2023-02-15T18:39:26;68.43;;;27.10;;
295;SDS011;132;48.770;9.200;2023-02-15T18:41:59;47.50;;;25.35;;
295;SDS011;132;48.770;9.200;2023-02-15T18:44:25;48.58;;;22.95;;
295;SDS011;132;48.770;9.200;2023-02-15T18:46:52;42.30;;;23.38;;
295;SDS011;132;48.770;9.200;2023-02-15T18:49:18;53.50;;;23.85;;
295;SDS011;132;48.770;9.200;2023-02-15T18:51:44;48.20;;;24.45;;
295;SDS011;132;48.770;9.200;2023-02-15T18:54:15;43.83;;;23.55;;
295;SDS011;132;48.770;9.200;2023-02-15T18:56:44;55.13;;;26.92;;
295;SDS011;132;48.770;9.200;2023-02-15T18:59:17;46.95;;;24.77;;
295;SDS011;132;48.770;9.200;2023-02-15T19:01:44;47.15;;;24.33;;
295;SDS011;132;48.770;9.200;2023-02-15T19:04:10;42.95;;;22.73;;
295;SDS011;132;48.770;9.200;2023-02-15T19:06:37;47.13;;;23.63;;
295;SDS011;132;48.770;9.200;2023-02-15T19:09:11;41.72;;;21.67;;
295;SDS011;132;48.770;9.200;2023-02-15T19:11:45;43.15;;;21.85;;
295;SDS011;132;48.770;9.200;2023-02-15T19:14:28;40.75;;;21.00;;
295;SDS011;132;48.770;9.200;2023-02-15T19:16:56;39.15;;;18.50;;